sensor_id;sensor_type;location;lat;lon;timestamp;P1;durP1;ratioP1;P2;durP2;ratioP2
5787;SDS011;2920;48.158;12.254;2023-05-19T00:00:31;6.88;;;3.58;;
5787;SDS011;2920;48.158;12.254;2023-05-19T00:02:57;14.43;;;3.80;;
5787;SDS011;2920;48.158;12.254;2023-05-19T00:05:24;9.23;;;3.80;;
5787;SDS011;2920;48.158;12.254;2023-05-19T00:07:50;8.68;;;3.55;;
5787;SDS011;2920;48.158;12.254;2023-05-19T00:10:16;9.80;;;3.72;;
5787;SDS011;2920;48.158;12.254;2023-05-19T00:12:42;11.80;;;4.10;;
5787;SDS011;2920;48.158;12.254;2023-05-19T00:15:07;7.88;;;3.92;;
5787;SDS011;2920;48.158;12.254;2023-05-19T00:17:34;12.95;;;3.63;;
5787;SDS011;2920;48.158;12.254;2023-05-19T00:20:00;10.80;;;4.18;;
5787;SDS011;2920;48.158;12.254;2023-05-19T00:22:31;9.95;;;4.47;;
5787;SDS011;2920;48.158;12.254;2023-05-19T00:24:56;10.82;;;4.28;;
5787;SDS011;2920;48.158;12.254;2023-05-19T00:27:21;7.55;;;3.25;;
5787;SDS011;2920;48.158;12.254;2023-05-19T00:29:47;13.57;;;4.68;;
5787;SDS011;2920;48.158;12.254;2023-05-19T00:32:12;9.93;;;4.07;;
5787;SDS011;2920;48.158;12.254;2023-05-19T00:34:37;12.15;;;4.45;;
5787;SDS011;2920;48.158;12.254;2023-05-19T00:37:03;12.68;;;4.28;;
5787;SDS011;2920;48.158;12.254;2023-05-19T00:39:28;12.68;;;4.00;;
5787;SDS011;2920;48.158;12.254;2023-05-19T00:41:53;14.73;;;4.55;;
5787;SDS011;2920;48.158;12.254;2023-05-19T00:44:19;17.08;;;4.00;;
5787;SDS011;2920;48.158;12.254;2023-05-19T00:46:44;9.27;;;3.65;;
5787;SDS011;2920;48.158;12.254;2023-05-19T00:49:10;6.50;;;3.75;;
5787;SDS011;2920;48.158;12.254;2023-05-19T00:51:35;7.15;;;3.60;;
5787;SDS011;2920;48.158;12.254;2023-05-19T00:54:01;8.05;;;4.07;;
5787;SDS011;2920;48.158;12.254;2023-05-19T00:56:26;7.18;;;3.65;;
5787;SDS011;2920;48.158;12.254;2023-05-19T00:58:52;8.95;;;3.88;;
5787;SDS011;2920;48.158;12.254;2023-05-19T01:01:17;6.72;;;3.60;;
5787;SDS011;2920;48.158;12.254;2023-05-19T01:03:45;12.68;;;4.40;;
5787;SDS011;2920;48.158;12.254;2023-05-19T01:06:11;11.88;;;3.10;;
5787;SDS011;2920;48.158;12.254;2023-05-19T01:08:37;10.30;;;4.05;;
5787;SDS011;2920;48.158;12.254;2023-05-19T01:11:06;7.70;;;3.85;;
5787;SDS011;2920;48.158;12.254;2023-05-19T01:13:32;6.88;;;3.55;;
5787;SDS011;2920;48.158;12.254;2023-05-19T01:16:20;6.82;;;3.25;;
5787;SDS011;2920;48.158;12.254;2023-05-19T01:18:51;7.32;;;2.88;;
5787;SDS011;2920;48.158;12.254;2023-05-19T01:32:22;7.72;;;3.15;;
5787;SDS011;2920;48.158;12.254;2023-05-19T01:34:48;12.95;;;4.07;;
5787;SDS011;2920;48.158;12.254;2023-05-19T01:37:15;8.57;;;4.57;;
5787;SDS011;2920;48.158;12.254;2023-05-19T01:39:41;11.73;;;4.40;;
5787;SDS011;2920;48.158;12.254;2023-05-19T01:42:08;13.23;;;4.00;;
5787;SDS011;2920;48.158;12.254;2023-05-19T01:44:34;12.05;;;4.40;;
5787;SDS011;2920;48.158;12.254;2023-05-19T01:47:00;9.77;;;3.90;;
5787;SDS011;2920;48.158;12.254;2023-05-19T01:49:25;10.05;;;4.75;;
5787;SDS011;2920;48.158;12.254;2023-05-19T01:51:52;5.75;;;3.53;;
5787;SDS011;2920;48.158;12.254;2023-05-19T01:54:18;7.32;;;3.60;;
5787;SDS011;2920;48.158;12.254;2023-05-19T01:59:41;7.68;;;3.67;;
5787;SDS011;2920;48.158;12.254;2023-05-19T02:05:07;6.35;;;3.45;;
5787;SDS011;2920;48.158;12.254;2023-05-19T02:07:36;8.10;;;3.50;;
5787;SDS011;2920;48.158;12.254;2023-05-19T02:12:39;8.63;;;3.53;;
5787;SDS011;2920;48.158;12.254;2023-05-19T02:15:17;6.90;;;3.80;;
5787;SDS011;2920;48.158;12.254;2023-05-19T02:17:45;8.85;;;4.22;;
5787;SDS011;2920;48.158;12.254;2023-05-19T02:20:14;10.00;;;4.27;;
5787;SDS011;2920;48.158;12.254;2023-05-19T02:22:40;8.90;;;3.90;;
5787;SDS011;2920;48.158;12.254;2023-05-19T02:25:05;7.75;;;4.38;;
5787;SDS011;2920;48.158;12.254;2023-05-19T02:27:32;9.82;;;4.68;;
5787;SDS011;2920;48.158;12.254;2023-05-19T02:29:58;16.20;;;3.67;;
5787;SDS011;2920;48.158;12.254;2023-05-19T02:32:23;11.38;;;4.75;;
5787;SDS011;2920;48.158;12.254;2023-05-19T02:34:48;7.15;;;3.83;;
5787;SDS011;2920;48.158;12.254;2023-05-19T02:37:14;11.60;;;4.25;;
5787;SDS011;2920;48.158;12.254;2023-05-19T02:39:40;9.98;;;3.67;;
5787;SDS011;2920;48.158;12.254;2023-05-19T02:42:06;9.32;;;4.07;;
5787;SDS011;2920;48.158;12.254;2023-05-19T02:44:31;7.15;;;4.00;;
5787;SDS011;2920;48.158;12.254;2023-05-19T02:46:56;11.43;;;4.55;;
5787;SDS011;2920;48.158;12.254;2023-05-19T02:49:22;11.68;;;4.10;;
5787;SDS011;2920;48.158;12.254;2023-05-19T02:51:47;6.97;;;4.20;;
5787;SDS011;2920;48.158;12.254;2023-05-19T02:54:12;9.10;;;3.50;;
5787;SDS011;2920;48.158;12.254;2023-05-19T02:56:37;8.20;;;4.13;;
5787;SDS011;2920;48.158;12.254;2023-05-19T02:59:03;7.60;;;4.10;;
5787;SDS011;2920;48.158;12.254;2023-05-19T03:01:28;11.98;;;4.45;;
5787;SDS011;2920;48.158;12.254;2023-05-19T03:03:53;7.63;;;4.25;;
5787;SDS011;2920;48.158;12.254;2023-05-19T03:06:19;7.18;;;3.70;;
5787;SDS011;2920;48.158;12.254;2023-05-19T03:08:47;10.07;;;4.78;;
5787;SDS011;2920;48.158;12.254;2023-05-19T03:11:12;8.27;;;4.15;;
5787;SDS011;2920;48.158;12.254;2023-05-19T03:13:39;13.98;;;5.03;;
5787;SDS011;2920;48.158;12.254;2023-05-19T03:16:04;7.57;;;4.13;;
5787;SDS011;2920;48.158;12.254;2023-05-19T03:18:32;9.68;;;4.00;;
5787;SDS011;2920;48.158;12.254;2023-05-19T03:20:57;12.75;;;4.63;;
5787;SDS011;2920;48.158;12.254;2023-05-19T03:23:23;7.78;;;4.20;;
5787;SDS011;2920;48.158;12.254;2023-05-19T03:25:48;6.82;;;3.88;;
5787;SDS011;2920;48.158;12.254;2023-05-19T03:28:13;15.02;;;4.82;;
5787;SDS011;2920;48.158;12.254;2023-05-19T03:30:39;9.50;;;4.10;;
5787;SDS011;2920;48.158;12.254;2023-05-19T03:33:04;10.43;;;4.25;;
5787;SDS011;2920;48.158;12.254;2023-05-19T03:35:29;11.35;;;4.57;;
5787;SDS011;2920;48.158;12.254;2023-05-19T03:37:54;7.70;;;4.70;;
5787;SDS011;2920;48.158;12.254;2023-05-19T03:40:20;6.97;;;3.90;;
5787;SDS011;2920;48.158;12.254;2023-05-19T03:42:45;10.55;;;4.00;;
5787;SDS011;2920;48.158;12.254;2023-05-19T03:45:11;8.90;;;4.55;;
5787;SDS011;2920;48.158;12.254;2023-05-19T03:47:36;14.10;;;5.00;;
5787;SDS011;2920;48.158;12.254;2023-05-19T03:50:01;9.82;;;4.38;;
5787;SDS011;2920;48.158;12.254;2023-05-19T03:52:26;11.48;;;5.00;;
5787;SDS011;2920;48.158;12.254;2023-05-19T03:54:52;12.30;;;4.72;;
5787;SDS011;2920;48.158;12.254;2023-05-19T03:57:17;10.18;;;4.38;;
5787;SDS011;2920;48.158;12.254;2023-05-19T03:59:43;9.43;;;3.78;;
5787;SDS011;2920;48.158;12.254;2023-05-19T04:02:08;17.90;;;5.13;;
5787;SDS011;2920;48.158;12.254;2023-05-19T04:04:34;9.18;;;4.93;;
5787;SDS011;2920;48.158;12.254;2023-05-19T04:07:01;10.63;;;4.80;;
5787;SDS011;2920;48.158;12.254;2023-05-19T04:09:26;5.80;;;3.72;;
5787;SDS011;2920;48.158;12.254;2023-05-19T04:11:51;10.52;;;4.47;;
5787;SDS011;2920;48.158;12.254;2023-05-19T04:14:17;8.15;;;4.18;;
5787;SDS011;2920;48.158;12.254;2023-05-19T04:16:44;14.65;;;4.93;;
5787;SDS011;2920;48.158;12.254;2023-05-19T04:19:09;12.48;;;5.35;;
5787;SDS011;2920;48.158;12.254;2023-05-19T04:21:34;12.63;;;5.45;;
5787;SDS011;2920;48.158;12.254;2023-05-19T04:24:00;11.73;;;5.28;;
5787;SDS011;2920;48.158;12.254;2023-05-19T04:26:25;8.85;;;5.82;;
5787;SDS011;2920;48.158;12.254;2023-05-19T04:28:54;8.90;;;4.25;;
5787;SDS011;2920;48.158;12.254;2023-05-19T04:31:20;10.23;;;5.00;;
5787;SDS011;2920;48.158;12.254;2023-05-19T04:33:45;11.23;;;5.35;;
5787;SDS011;2920;48.158;12.254;2023-05-19T04:36:12;9.95;;;5.40;;
5787;SDS011;2920;48.158;12.254;2023-05-19T04:38:37;11.10;;;4.90;;
5787;SDS011;2920;48.158;12.254;2023-05-19T04:41:07;12.85;;;6.45;;
5787;SDS011;2920;48.158;12.254;2023-05-19T04:43:36;16.00;;;5.30;;
5787;SDS011;2920;48.158;12.254;2023-05-19T04:46:06;13.85;;;5.03;;
5787;SDS011;2920;48.158;12.254;2023-05-19T04:48:32;8.48;;;5.32;;
5787;SDS011;2920;48.158;12.254;2023-05-19T04:50:57;16.65;;;6.32;;
5787;SDS011;2920;48.158;12.254;2023-05-19T04:53:25;12.77;;;5.07;;
5787;SDS011;2920;48.158;12.254;2023-05-19T04:55:52;11.18;;;5.45;;
5787;SDS011;2920;48.158;12.254;2023-05-19T04:58:17;9.05;;;5.20;;
5787;SDS011;2920;48.158;12.254;2023-05-19T05:00:43;12.23;;;5.55;;
5787;SDS011;2920;48.158;12.254;2023-05-19T05:03:09;13.80;;;6.30;;
5787;SDS011;2920;48.158;12.254;2023-05-19T05:05:34;7.90;;;5.18;;
5787;SDS011;2920;48.158;12.254;2023-05-19T05:07:59;16.13;;;6.78;;
5787;SDS011;2920;48.158;12.254;2023-05-19T05:10:25;9.27;;;5.95;;
5787;SDS011;2920;48.158;12.254;2023-05-19T05:12:50;12.48;;;5.63;;
5787;SDS011;2920;48.158;12.254;2023-05-19T05:15:16;12.88;;;6.13;;
5787;SDS011;2920;48.158;12.254;2023-05-19T05:17:42;10.43;;;6.00;;
5787;SDS011;2920;48.158;12.254;2023-05-19T05:20:07;11.70;;;6.03;;
5787;SDS011;2920;48.158;12.254;2023-05-19T05:22:33;15.00;;;6.32;;
5787;SDS011;2920;48.158;12.254;2023-05-19T05:24:59;13.30;;;5.93;;
5787;SDS011;2920;48.158;12.254;2023-05-19T05:27:25;17.58;;;6.75;;
5787;SDS011;2920;48.158;12.254;2023-05-19T05:29:51;10.95;;;5.90;;
5787;SDS011;2920;48.158;12.254;2023-05-19T05:32:17;16.10;;;6.32;;
5787;SDS011;2920;48.158;12.254;2023-05-19T05:34:42;14.93;;;5.80;;
5787;SDS011;2920;48.158;12.254;2023-05-19T05:37:07;16.67;;;6.60;;
5787;SDS011;2920;48.158;12.254;2023-05-19T05:39:33;12.60;;;6.30;;
5787;SDS011;2920;48.158;12.254;2023-05-19T05:41:58;12.82;;;6.00;;
5787;SDS011;2920;48.158;12.254;2023-05-19T05:44:23;12.10;;;5.75;;
5787;SDS011;2920;48.158;12.254;2023-05-19T05:46:49;15.50;;;6.68;;
5787;SDS011;2920;48.158;12.254;2023-05-19T05:49:14;28.90;;;6.38;;
5787;SDS011;2920;48.158;12.254;2023-05-19T05:51:40;15.07;;;6.40;;
5787;SDS011;2920;48.158;12.254;2023-05-19T05:54:05;8.18;;;5.80;;
5787;SDS011;2920;48.158;12.254;2023-05-19T05:56:31;15.10;;;6.93;;
5787;SDS011;2920;48.158;12.254;2023-05-19T05:59:01;11.63;;;6.30;;
5787;SDS011;2920;48.158;12.254;2023-05-19T06:01:26;15.73;;;6.53;;
5787;SDS011;2920;48.158;12.254;2023-05-19T06:03:54;15.85;;;6.95;;
5787;SDS011;2920;48.158;12.254;2023-05-19T06:06:19;10.57;;;5.95;;
5787;SDS011;2920;48.158;12.254;2023-05-19T06:08:45;9.07;;;5.75;;
5787;SDS011;2920;48.158;12.254;2023-05-19T06:11:10;11.18;;;5.80;;
5787;SDS011;2920;48.158;12.254;2023-05-19T06:13:36;11.20;;;6.07;;
5787;SDS011;2920;48.158;12.254;2023-05-19T06:16:02;16.02;;;6.07;;
5787;SDS011;2920;48.158;12.254;2023-05-19T06:18:27;9.50;;;5.47;;
5787;SDS011;2920;48.158;12.254;2023-05-19T06:20:53;10.50;;;5.65;;
5787;SDS011;2920;48.158;12.254;2023-05-19T06:23:18;10.95;;;5.53;;
5787;SDS011;2920;48.158;12.254;2023-05-19T06:25:43;9.40;;;6.40;;
5787;SDS011;2920;48.158;12.254;2023-05-19T06:28:09;10.73;;;5.68;;
5787;SDS011;2920;48.158;12.254;2023-05-19T06:30:34;9.85;;;5.30;;
5787;SDS011;2920;48.158;12.254;2023-05-19T06:33:00;10.65;;;6.72;;
5787;SDS011;2920;48.158;12.254;2023-05-19T06:35:27;12.13;;;5.50;;
5787;SDS011;2920;48.158;12.254;2023-05-19T06:37:54;12.73;;;6.75;;
5787;SDS011;2920;48.158;12.254;2023-05-19T06:40:22;15.20;;;5.97;;
5787;SDS011;2920;48.158;12.254;2023-05-19T06:42:47;9.68;;;5.80;;
5787;SDS011;2920;48.158;12.254;2023-05-19T06:45:13;7.65;;;5.20;;
5787;SDS011;2920;48.158;12.254;2023-05-19T06:47:39;11.93;;;6.30;;
5787;SDS011;2920;48.158;12.254;2023-05-19T06:50:08;11.82;;;5.32;;
5787;SDS011;2920;48.158;12.254;2023-05-19T06:52:34;13.07;;;5.97;;
5787;SDS011;2920;48.158;12.254;2023-05-19T06:54:59;10.57;;;5.32;;
5787;SDS011;2920;48.158;12.254;2023-05-19T06:57:25;9.65;;;6.00;;
5787;SDS011;2920;48.158;12.254;2023-05-19T06:59:50;8.95;;;5.43;;
5787;SDS011;2920;48.158;12.254;2023-05-19T07:02:15;10.13;;;6.50;;
5787;SDS011;2920;48.158;12.254;2023-05-19T07:04:40;10.63;;;5.75;;
5787;SDS011;2920;48.158;12.254;2023-05-19T07:07:07;11.32;;;5.57;;
5787;SDS011;2920;48.158;12.254;2023-05-19T07:09:32;9.85;;;5.53;;
5787;SDS011;2920;48.158;12.254;2023-05-19T07:11:57;11.25;;;5.60;;
5787;SDS011;2920;48.158;12.254;2023-05-19T07:14:23;9.40;;;5.38;;
5787;SDS011;2920;48.158;12.254;2023-05-19T07:16:48;10.20;;;4.82;;
5787;SDS011;2920;48.158;12.254;2023-05-19T07:19:13;9.00;;;5.43;;
5787;SDS011;2920;48.158;12.254;2023-05-19T07:21:39;8.60;;;5.25;;
5787;SDS011;2920;48.158;12.254;2023-05-19T07:24:06;9.25;;;5.03;;
5787;SDS011;2920;48.158;12.254;2023-05-19T07:26:31;10.65;;;5.63;;
5787;SDS011;2920;48.158;12.254;2023-05-19T07:28:57;8.55;;;6.13;;
5787;SDS011;2920;48.158;12.254;2023-05-19T07:31:22;8.93;;;5.10;;
5787;SDS011;2920;48.158;12.254;2023-05-19T07:33:47;10.95;;;5.15;;
5787;SDS011;2920;48.158;12.254;2023-05-19T07:36:13;9.23;;;4.85;;
5787;SDS011;2920;48.158;12.254;2023-05-19T07:38:38;6.95;;;4.75;;
5787;SDS011;2920;48.158;12.254;2023-05-19T07:41:03;10.65;;;4.95;;
5787;SDS011;2920;48.158;12.254;2023-05-19T07:43:29;10.68;;;5.32;;
5787;SDS011;2920;48.158;12.254;2023-05-19T07:45:54;8.48;;;5.05;;
5787;SDS011;2920;48.158;12.254;2023-05-19T07:48:22;11.82;;;5.88;;
5787;SDS011;2920;48.158;12.254;2023-05-19T07:50:49;11.25;;;5.55;;
5787;SDS011;2920;48.158;12.254;2023-05-19T07:53:16;7.25;;;5.35;;
5787;SDS011;2920;48.158;12.254;2023-05-19T07:55:41;9.45;;;5.10;;
5787;SDS011;2920;48.158;12.254;2023-05-19T07:58:06;5.45;;;4.35;;
5787;SDS011;2920;48.158;12.254;2023-05-19T08:00:32;7.40;;;4.97;;
5787;SDS011;2920;48.158;12.254;2023-05-19T08:02:57;10.82;;;5.60;;
5787;SDS011;2920;48.158;12.254;2023-05-19T08:05:24;9.60;;;5.00;;
5787;SDS011;2920;48.158;12.254;2023-05-19T08:07:52;11.35;;;5.00;;
5787;SDS011;2920;48.158;12.254;2023-05-19T08:10:17;7.55;;;4.78;;
5787;SDS011;2920;48.158;12.254;2023-05-19T08:12:42;8.25;;;4.63;;
5787;SDS011;2920;48.158;12.254;2023-05-19T08:15:08;7.72;;;4.28;;
5787;SDS011;2920;48.158;12.254;2023-05-19T08:17:35;11.75;;;4.93;;
5787;SDS011;2920;48.158;12.254;2023-05-19T08:20:01;7.60;;;4.85;;
5787;SDS011;2920;48.158;12.254;2023-05-19T08:22:27;12.20;;;4.57;;
5787;SDS011;2920;48.158;12.254;2023-05-19T08:24:53;15.40;;;4.97;;
5787;SDS011;2920;48.158;12.254;2023-05-19T08:27:18;7.05;;;4.60;;
5787;SDS011;2920;48.158;12.254;2023-05-19T08:29:43;6.68;;;4.57;;
5787;SDS011;2920;48.158;12.254;2023-05-19T08:32:09;7.05;;;4.78;;
5787;SDS011;2920;48.158;12.254;2023-05-19T08:34:34;9.73;;;4.90;;
5787;SDS011;2920;48.158;12.254;2023-05-19T08:36:59;10.63;;;4.40;;
5787;SDS011;2920;48.158;12.254;2023-05-19T08:39:25;7.70;;;5.47;;
5787;SDS011;2920;48.158;12.254;2023-05-19T08:41:52;7.97;;;5.57;;
5787;SDS011;2920;48.158;12.254;2023-05-19T08:44:17;6.35;;;4.45;;
5787;SDS011;2920;48.158;12.254;2023-05-19T08:46:43;7.75;;;4.63;;
5787;SDS011;2920;48.158;12.254;2023-05-19T08:49:10;6.95;;;4.68;;
5787;SDS011;2920;48.158;12.254;2023-05-19T08:54:13;11.30;;;5.60;;
5787;SDS011;2920;48.158;12.254;2023-05-19T08:56:39;6.70;;;4.60;;
5787;SDS011;2920;48.158;12.254;2023-05-19T08:59:10;11.52;;;5.00;;
5787;SDS011;2920;48.158;12.254;2023-05-19T09:01:36;8.23;;;4.90;;
5787;SDS011;2920;48.158;12.254;2023-05-19T09:04:02;7.18;;;4.10;;
5787;SDS011;2920;48.158;12.254;2023-05-19T09:06:27;9.68;;;5.28;;
5787;SDS011;2920;48.158;12.254;2023-05-19T09:08:56;8.87;;;5.40;;
5787;SDS011;2920;48.158;12.254;2023-05-19T09:11:21;10.10;;;4.97;;
5787;SDS011;2920;48.158;12.254;2023-05-19T09:13:46;8.30;;;5.60;;
5787;SDS011;2920;48.158;12.254;2023-05-19T09:16:13;8.50;;;5.22;;
5787;SDS011;2920;48.158;12.254;2023-05-19T09:18:39;9.77;;;5.47;;
5787;SDS011;2920;48.158;12.254;2023-05-19T09:21:05;7.05;;;5.28;;
5787;SDS011;2920;48.158;12.254;2023-05-19T09:23:31;9.65;;;5.43;;
5787;SDS011;2920;48.158;12.254;2023-05-19T09:26:03;9.53;;;5.17;;
5787;SDS011;2920;48.158;12.254;2023-05-19T09:28:32;8.50;;;4.97;;
5787;SDS011;2920;48.158;12.254;2023-05-19T09:30:59;11.30;;;6.05;;
5787;SDS011;2920;48.158;12.254;2023-05-19T09:33:25;7.70;;;4.80;;
5787;SDS011;2920;48.158;12.254;2023-05-19T09:35:50;8.32;;;5.85;;
5787;SDS011;2920;48.158;12.254;2023-05-19T09:38:18;9.82;;;6.15;;
5787;SDS011;2920;48.158;12.254;2023-05-19T09:40:44;10.63;;;6.00;;
5787;SDS011;2920;48.158;12.254;2023-05-19T09:43:09;10.15;;;5.35;;
5787;SDS011;2920;48.158;12.254;2023-05-19T09:45:34;7.22;;;5.30;;
5787;SDS011;2920;48.158;12.254;2023-05-19T09:48:02;9.43;;;5.47;;
5787;SDS011;2920;48.158;12.254;2023-05-19T09:50:28;11.80;;;5.65;;
5787;SDS011;2920;48.158;12.254;2023-05-19T09:52:54;12.23;;;6.30;;
5787;SDS011;2920;48.158;12.254;2023-05-19T09:55:20;8.25;;;6.45;;
5787;SDS011;2920;48.158;12.254;2023-05-19T09:57:49;10.85;;;5.22;;
5787;SDS011;2920;48.158;12.254;2023-05-19T10:00:16;13.70;;;6.45;;
5787;SDS011;2920;48.158;12.254;2023-05-19T10:02:46;12.75;;;6.32;;
5787;SDS011;2920;48.158;12.254;2023-05-19T10:07:40;9.03;;;6.27;;
5787;SDS011;2920;48.158;12.254;2023-05-19T10:10:08;9.27;;;5.55;;
5787;SDS011;2920;48.158;12.254;2023-05-19T10:12:37;11.43;;;6.32;;
5787;SDS011;2920;48.158;12.254;2023-05-19T10:15:03;12.93;;;6.82;;
5787;SDS011;2920;48.158;12.254;2023-05-19T10:17:30;7.93;;;5.72;;
5787;SDS011;2920;48.158;12.254;2023-05-19T10:19:56;10.48;;;6.90;;
5787;SDS011;2920;48.158;12.254;2023-05-19T10:22:22;8.27;;;5.72;;
5787;SDS011;2920;48.158;12.254;2023-05-19T10:24:47;12.18;;;6.40;;
5787;SDS011;2920;48.158;12.254;2023-05-19T10:27:12;10.85;;;7.18;;
5787;SDS011;2920;48.158;12.254;2023-05-19T10:29:40;12.73;;;7.18;;
5787;SDS011;2920;48.158;12.254;2023-05-19T10:32:09;15.10;;;7.07;;
5787;SDS011;2920;48.158;12.254;2023-05-19T10:40:11;12.35;;;6.97;;
5787;SDS011;2920;48.158;12.254;2023-05-19T10:42:42;11.65;;;7.40;;
5787;SDS011;2920;48.158;12.254;2023-05-19T10:45:16;13.18;;;6.65;;
5787;SDS011;2920;48.158;12.254;2023-05-19T10:47:44;10.38;;;6.25;;
5787;SDS011;2920;48.158;12.254;2023-05-19T10:50:10;18.85;;;7.20;;
5787;SDS011;2920;48.158;12.254;2023-05-19T10:52:36;10.35;;;7.50;;
5787;SDS011;2920;48.158;12.254;2023-05-19T10:55:02;10.90;;;6.60;;
5787;SDS011;2920;48.158;12.254;2023-05-19T10:57:28;12.70;;;6.38;;
5787;SDS011;2920;48.158;12.254;2023-05-19T10:59:57;10.48;;;7.13;;
5787;SDS011;2920;48.158;12.254;2023-05-19T11:05:08;12.15;;;7.30;;
5787;SDS011;2920;48.158;12.254;2023-05-19T11:07:35;9.73;;;7.05;;
5787;SDS011;2920;48.158;12.254;2023-05-19T11:10:04;11.93;;;7.25;;
5787;SDS011;2920;48.158;12.254;2023-05-19T11:12:30;8.88;;;5.82;;
5787;SDS011;2920;48.158;12.254;2023-05-19T11:15:05;12.98;;;7.18;;
5787;SDS011;2920;48.158;12.254;2023-05-19T11:17:32;8.70;;;6.43;;
5787;SDS011;2920;48.158;12.254;2023-05-19T11:19:58;11.30;;;6.20;;
5787;SDS011;2920;48.158;12.254;2023-05-19T11:22:24;8.63;;;5.97;;
5787;SDS011;2920;48.158;12.254;2023-05-19T11:24:52;8.25;;;6.28;;
5787;SDS011;2920;48.158;12.254;2023-05-19T11:29:44;8.85;;;5.78;;
5787;SDS011;2920;48.158;12.254;2023-05-19T11:32:09;8.65;;;5.55;;
5787;SDS011;2920;48.158;12.254;2023-05-19T11:34:35;11.68;;;6.53;;
5787;SDS011;2920;48.158;12.254;2023-05-19T11:37:01;8.20;;;6.05;;
5787;SDS011;2920;48.158;12.254;2023-05-19T11:39:26;11.35;;;5.82;;
5787;SDS011;2920;48.158;12.254;2023-05-19T11:41:54;12.55;;;5.90;;
5787;SDS011;2920;48.158;12.254;2023-05-19T11:44:19;9.25;;;5.95;;
5787;SDS011;2920;48.158;12.254;2023-05-19T11:46:44;9.70;;;6.90;;
5787;SDS011;2920;48.158;12.254;2023-05-19T11:49:10;12.05;;;6.50;;
5787;SDS011;2920;48.158;12.254;2023-05-19T11:51:35;8.77;;;6.55;;
5787;SDS011;2920;48.158;12.254;2023-05-19T11:54:02;14.60;;;6.65;;
5787;SDS011;2920;48.158;12.254;2023-05-19T11:56:32;8.40;;;6.22;;
5787;SDS011;2920;48.158;12.254;2023-05-19T11:58:58;11.13;;;6.60;;
5787;SDS011;2920;48.158;12.254;2023-05-19T12:01:23;7.65;;;5.65;;
5787;SDS011;2920;48.158;12.254;2023-05-19T12:03:51;8.05;;;6.20;;
5787;SDS011;2920;48.158;12.254;2023-05-19T12:06:16;12.23;;;7.80;;
5787;SDS011;2920;48.158;12.254;2023-05-19T12:08:41;8.13;;;6.28;;
5787;SDS011;2920;48.158;12.254;2023-05-19T12:11:08;9.57;;;5.78;;
5787;SDS011;2920;48.158;12.254;2023-05-19T12:13:34;12.95;;;6.57;;
5787;SDS011;2920;48.158;12.254;2023-05-19T12:16:00;11.20;;;6.65;;
5787;SDS011;2920;48.158;12.254;2023-05-19T12:18:27;8.20;;;6.18;;
5787;SDS011;2920;48.158;12.254;2023-05-19T12:20:54;8.40;;;6.03;;
5787;SDS011;2920;48.158;12.254;2023-05-19T12:23:19;12.75;;;7.07;;
5787;SDS011;2920;48.158;12.254;2023-05-19T12:25:45;8.05;;;5.60;;
5787;SDS011;2920;48.158;12.254;2023-05-19T12:28:10;10.18;;;6.43;;
5787;SDS011;2920;48.158;12.254;2023-05-19T12:30:36;9.65;;;6.82;;
5787;SDS011;2920;48.158;12.254;2023-05-19T12:33:01;9.55;;;6.45;;
5787;SDS011;2920;48.158;12.254;2023-05-19T12:35:30;8.57;;;5.90;;
5787;SDS011;2920;48.158;12.254;2023-05-19T12:38:02;10.13;;;7.20;;
5787;SDS011;2920;48.158;12.254;2023-05-19T12:40:28;10.93;;;6.80;;
5787;SDS011;2920;48.158;12.254;2023-05-19T12:42:55;9.45;;;7.07;;
5787;SDS011;2920;48.158;12.254;2023-05-19T12:45:22;10.83;;;6.87;;
5787;SDS011;2920;48.158;12.254;2023-05-19T12:47:50;11.65;;;8.32;;
5787;SDS011;2920;48.158;12.254;2023-05-19T12:50:17;11.85;;;7.28;;
5787;SDS011;2920;48.158;12.254;2023-05-19T12:52:45;10.98;;;6.70;;
5787;SDS011;2920;48.158;12.254;2023-05-19T12:55:11;11.35;;;6.88;;
5787;SDS011;2920;48.158;12.254;2023-05-19T12:57:41;7.85;;;6.00;;
5787;SDS011;2920;48.158;12.254;2023-05-19T13:00:18;8.30;;;6.50;;
5787;SDS011;2920;48.158;12.254;2023-05-19T13:03:01;8.98;;;6.28;;
5787;SDS011;2920;48.158;12.254;2023-05-19T13:05:39;8.88;;;6.53;;
5787;SDS011;2920;48.158;12.254;2023-05-19T13:08:08;10.70;;;6.85;;
5787;SDS011;2920;48.158;12.254;2023-05-19T13:10:35;10.77;;;6.28;;
5787;SDS011;2920;48.158;12.254;2023-05-19T13:13:01;9.63;;;6.30;;
5787;SDS011;2920;48.158;12.254;2023-05-19T13:15:28;9.00;;;6.50;;
5787;SDS011;2920;48.158;12.254;2023-05-19T13:18:00;11.73;;;5.93;;
5787;SDS011;2920;48.158;12.254;2023-05-19T13:20:27;10.27;;;6.70;;
5787;SDS011;2920;48.158;12.254;2023-05-19T13:22:52;7.65;;;6.38;;
5787;SDS011;2920;48.158;12.254;2023-05-19T13:25:18;9.15;;;6.40;;
5787;SDS011;2920;48.158;12.254;2023-05-19T13:27:44;12.80;;;7.13;;
5787;SDS011;2920;48.158;12.254;2023-05-19T13:30:10;9.57;;;6.05;;
5787;SDS011;2920;48.158;12.254;2023-05-19T13:32:35;9.75;;;6.35;;
5787;SDS011;2920;48.158;12.254;2023-05-19T13:35:01;8.40;;;6.60;;
5787;SDS011;2920;48.158;12.254;2023-05-19T13:37:26;10.55;;;6.80;;
5787;SDS011;2920;48.158;12.254;2023-05-19T13:39:52;13.48;;;7.00;;
5787;SDS011;2920;48.158;12.254;2023-05-19T13:42:17;8.50;;;6.20;;
5787;SDS011;2920;48.158;12.254;2023-05-19T13:44:44;8.25;;;6.30;;
5787;SDS011;2920;48.158;12.254;2023-05-19T13:47:09;9.10;;;6.85;;
5787;SDS011;2920;48.158;12.254;2023-05-19T13:49:35;7.13;;;5.82;;
5787;SDS011;2920;48.158;12.254;2023-05-19T13:52:00;7.88;;;6.18;;
5787;SDS011;2920;48.158;12.254;2023-05-19T13:54:25;9.60;;;6.80;;
5787;SDS011;2920;48.158;12.254;2023-05-19T13:56:51;9.27;;;6.10;;
5787;SDS011;2920;48.158;12.254;2023-05-19T13:59:16;9.70;;;5.90;;
5787;SDS011;2920;48.158;12.254;2023-05-19T14:01:42;8.88;;;5.65;;
5787;SDS011;2920;48.158;12.254;2023-05-19T14:04:08;7.13;;;5.68;;
5787;SDS011;2920;48.158;12.254;2023-05-19T14:06:34;8.32;;;6.25;;
5787;SDS011;2920;48.158;12.254;2023-05-19T14:09:00;11.52;;;7.00;;
5787;SDS011;2920;48.158;12.254;2023-05-19T14:11:26;6.28;;;5.18;;
5787;SDS011;2920;48.158;12.254;2023-05-19T14:13:51;6.93;;;5.18;;
5787;SDS011;2920;48.158;12.254;2023-05-19T14:16:16;9.48;;;6.13;;
5787;SDS011;2920;48.158;12.254;2023-05-19T14:18:42;8.68;;;5.72;;
5787;SDS011;2920;48.158;12.254;2023-05-19T14:21:07;6.72;;;5.70;;
5787;SDS011;2920;48.158;12.254;2023-05-19T14:23:33;7.60;;;5.20;;
5787;SDS011;2920;48.158;12.254;2023-05-19T14:25:58;7.97;;;6.18;;
5787;SDS011;2920;48.158;12.254;2023-05-19T14:28:24;8.80;;;4.80;;
5787;SDS011;2920;48.158;12.254;2023-05-19T14:30:49;8.07;;;5.38;;
5787;SDS011;2920;48.158;12.254;2023-05-19T14:33:15;5.63;;;3.88;;
5787;SDS011;2920;48.158;12.254;2023-05-19T14:35:40;7.53;;;5.03;;
5787;SDS011;2920;48.158;12.254;2023-05-19T14:38:06;7.88;;;4.45;;
5787;SDS011;2920;48.158;12.254;2023-05-19T14:40:31;8.10;;;4.55;;
5787;SDS011;2920;48.158;12.254;2023-05-19T14:42:56;6.65;;;4.32;;
5787;SDS011;2920;48.158;12.254;2023-05-19T14:45:22;6.22;;;4.28;;
5787;SDS011;2920;48.158;12.254;2023-05-19T14:47:47;4.63;;;3.63;;
5787;SDS011;2920;48.158;12.254;2023-05-19T14:50:12;6.43;;;4.70;;
5787;SDS011;2920;48.158;12.254;2023-05-19T14:52:38;7.40;;;5.05;;
5787;SDS011;2920;48.158;12.254;2023-05-19T14:55:03;6.78;;;4.65;;
5787;SDS011;2920;48.158;12.254;2023-05-19T14:57:29;7.50;;;4.70;;
5787;SDS011;2920;48.158;12.254;2023-05-19T14:59:54;6.82;;;4.32;;
5787;SDS011;2920;48.158;12.254;2023-05-19T15:02:19;8.13;;;4.38;;
5787;SDS011;2920;48.158;12.254;2023-05-19T15:04:45;6.75;;;5.32;;
5787;SDS011;2920;48.158;12.254;2023-05-19T15:07:10;5.45;;;4.25;;
5787;SDS011;2920;48.158;12.254;2023-05-19T15:09:35;6.88;;;5.35;;
5787;SDS011;2920;48.158;12.254;2023-05-19T15:12:01;6.82;;;4.07;;
5787;SDS011;2920;48.158;12.254;2023-05-19T15:14:26;8.13;;;4.47;;
5787;SDS011;2920;48.158;12.254;2023-05-19T15:16:51;6.07;;;4.97;;
5787;SDS011;2920;48.158;12.254;2023-05-19T15:19:17;9.50;;;4.95;;
5787;SDS011;2920;48.158;12.254;2023-05-19T15:21:42;6.15;;;4.88;;
5787;SDS011;2920;48.158;12.254;2023-05-19T15:24:09;7.45;;;5.10;;